createdAt,value
2023-03-11T00:02:13.567Z,1.2
2023-03-11T00:05:15.491Z,1.3
2023-03-11T00:08:17.390Z,2.9
2023-03-11T00:11:19.300Z,1.5
2023-03-11T00:14:21.295Z,1.6
2023-03-11T00:17:23.250Z,1.2
2023-03-11T00:20:25.399Z,2.9
2023-03-11T00:23:27.154Z,1.7
2023-03-11T00:26:29.112Z,1.4
2023-03-11T00:29:31.082Z,2.7
2023-03-11T00:32:33.130Z,1.3
2023-03-11T00:35:35.049Z,2.4
2023-03-11T00:38:37.036Z,3.5
2023-03-11T00:41:38.906Z,3.4
2023-03-11T00:44:40.903Z,1.4
2023-03-11T00:47:42.824Z,1.7
2023-03-11T00:50:44.805Z,2.1
2023-03-11T00:53:46.762Z,3.3
2023-03-11T00:56:48.742Z,3
2023-03-11T00:59:50.697Z,1.4
2023-03-11T01:02:52.675Z,2.3
2023-03-11T01:05:54.635Z,4.4
2023-03-11T01:08:56.577Z,6.1
2023-03-11T01:11:58.537Z,2.6
2023-03-11T01:15:00.540Z,2.9
2023-03-11T01:18:02.533Z,2.1
2023-03-11T01:21:04.468Z,2.8
2023-03-11T01:24:06.412Z,4.4
2023-03-11T01:27:08.363Z,2.1
2023-03-11T01:30:10.316Z,3.3
2023-03-11T01:33:12.313Z,2.5
2023-03-11T01:36:14.275Z,2.8
2023-03-11T01:39:16.229Z,2.6
2023-03-11T01:42:18.146Z,3.9
2023-03-11T01:45:20.117Z,2
2023-03-11T01:48:22.097Z,2.8
2023-03-11T01:51:24.049Z,4.6
2023-03-11T01:54:26.028Z,3.6
2023-03-11T01:57:28.001Z,1.7
2023-03-11T02:00:30.121Z,4
2023-03-11T02:03:31.920Z,4
2023-03-11T02:06:33.893Z,4.7
2023-03-11T02:09:35.855Z,2.7
2023-03-11T02:12:37.812Z,2.7
2023-03-11T02:15:40.105Z,5.9
2023-03-11T02:18:41.743Z,3.4
2023-03-11T02:21:43.791Z,1.9
2023-03-11T02:24:45.770Z,4.5
2023-03-11T02:27:47.678Z,4.8
2023-03-11T02:30:49.682Z,4.3
2023-03-11T02:33:51.617Z,4.9
2023-03-11T02:36:53.597Z,3.7
2023-03-11T02:39:55.598Z,3.3
2023-03-11T02:42:57.510Z,9
2023-03-11T02:45:59.459Z,4
2023-03-11T02:49:01.423Z,4.3
2023-03-11T02:52:03.388Z,2.9
2023-03-11T02:55:05.355Z,5.3
2023-03-11T02:58:07.303Z,3.5
2023-03-11T03:01:09.282Z,3.7
2023-03-11T03:04:11.263Z,5.3
2023-03-11T03:07:13.244Z,5.3
2023-03-11T03:10:15.193Z,3.6
2023-03-11T03:13:17.154Z,6.4
2023-03-11T03:16:19.134Z,5
2023-03-11T03:19:21.096Z,2.1
2023-03-11T03:22:23.033Z,6.3
2023-03-11T03:25:24.982Z,2.6
2023-03-11T03:28:26.974Z,5.2
2023-03-11T03:31:28.940Z,4.5
2023-03-11T03:34:30.897Z,6.2
2023-03-11T03:37:32.851Z,5
2023-03-11T03:40:34.794Z,5.1
2023-03-11T03:43:36.766Z,5.5
2023-03-11T03:46:38.729Z,2.5
2023-03-11T03:49:40.681Z,4.9
2023-03-11T03:52:42.640Z,2.8
2023-03-11T03:55:44.632Z,5.2
2023-03-11T03:58:46.919Z,3.1
2023-03-11T04:01:48.561Z,3.8
2023-03-11T04:04:50.506Z,3.6
2023-03-11T04:07:52.478Z,4.9
2023-03-11T04:10:54.462Z,3.1
2023-03-11T04:13:56.380Z,1.8
2023-03-11T04:16:58.428Z,7.6
2023-03-11T04:20:00.320Z,8
2023-03-11T04:23:02.250Z,7.5
2023-03-11T04:26:04.233Z,4
2023-03-11T04:29:06.182Z,4.6
2023-03-11T04:32:08.131Z,5.2
2023-03-11T04:35:10.120Z,3.2
2023-03-11T04:38:12.073Z,3.1
2023-03-11T04:41:14.061Z,2.3
2023-03-11T04:44:16.022Z,3.9
2023-03-11T04:47:18.017Z,4.2
2023-03-11T04:50:19.940Z,2.2
2023-03-11T04:53:21.933Z,6.6
2023-03-11T04:56:23.876Z,5.7
2023-03-11T04:59:25.833Z,5.3
2023-03-11T05:02:27.814Z,7.1
2023-03-11T05:05:29.775Z,5.5
2023-03-11T05:08:31.756Z,3
2023-03-11T05:11:33.674Z,3.8
2023-03-11T05:14:35.760Z,6.5
2023-03-11T05:17:37.681Z,3.6
2023-03-11T05:20:39.626Z,5.1
2023-03-11T05:23:41.612Z,5
2023-03-11T05:26:43.567Z,4.5
2023-03-11T05:29:45.565Z,4.1
2023-03-11T05:32:47.563Z,6
2023-03-11T05:35:49.580Z,3.7
2023-03-11T05:38:51.455Z,4.3
2023-03-11T05:41:53.393Z,4.5
2023-03-11T05:44:55.557Z,5.7
2023-03-11T05:47:57.364Z,7.1
2023-03-11T05:50:59.348Z,5.1
2023-03-11T05:54:01.318Z,5.6
2023-03-11T05:57:03.239Z,4
2023-03-11T06:00:05.204Z,5.2
2023-03-11T06:03:07.157Z,4.3
2023-03-11T06:06:09.129Z,8.3
2023-03-11T06:09:11.089Z,5.5
2023-03-11T06:12:13.070Z,6.9
2023-03-11T06:15:15.053Z,5.9
2023-03-11T06:18:17.008Z,4.1
2023-03-11T06:21:18.971Z,6.6
2023-03-11T06:24:20.905Z,5.5
2023-03-11T06:27:22.893Z,3
2023-03-11T06:30:24.865Z,6.4
2023-03-11T06:33:26.822Z,5.4
2023-03-11T06:36:28.764Z,7.8
2023-03-11T06:39:30.749Z,8.3
2023-03-11T06:42:32.713Z,5.6
2023-03-11T06:45:34.765Z,7.1
2023-03-11T06:48:36.609Z,6.1
2023-03-11T06:51:38.578Z,5.4
2023-03-11T06:54:40.526Z,6.9
2023-03-11T06:57:42.514Z,8.7
2023-03-11T07:00:44.554Z,6.4
2023-03-11T07:03:46.519Z,11
2023-03-11T07:06:48.451Z,5.4
2023-03-11T07:09:50.391Z,8.2
2023-03-11T07:12:52.333Z,7
2023-03-11T07:15:57.375Z,7
2023-03-11T07:18:59.329Z,6
2023-03-11T07:22:01.283Z,5.1
2023-03-11T07:25:03.230Z,7
2023-03-11T07:28:05.179Z,3.9
2023-03-11T07:31:07.173Z,8.6
2023-03-11T07:34:09.138Z,4
2023-03-11T07:37:11.128Z,3
2023-03-11T07:40:13.047Z,5.6
2023-03-11T07:43:15.186Z,12.5
2023-03-11T07:46:17.621Z,4.7
2023-03-11T07:49:18.945Z,7.8
2023-03-11T07:52:20.947Z,5
2023-03-11T07:55:22.895Z,5.2
2023-03-11T07:58:24.858Z,5.3
2023-03-11T08:01:26.861Z,3.7
2023-03-11T08:04:28.801Z,3.9
2023-03-11T08:07:30.761Z,6.6
2023-03-11T08:10:32.741Z,5.3
2023-03-11T08:13:34.698Z,6.4
2023-03-11T08:16:36.657Z,11.6
2023-03-11T08:19:38.590Z,9.9
2023-03-11T08:22:52.040Z,5.7
2023-03-11T08:25:42.542Z,5.3
2023-03-11T08:28:44.569Z,4.8
2023-03-11T08:31:46.533Z,5.2
2023-03-11T08:34:48.460Z,5.3
2023-03-11T08:37:50.406Z,4
2023-03-11T08:40:52.383Z,4.6
2023-03-11T08:43:54.333Z,4
2023-03-11T08:46:56.429Z,5.4
2023-03-11T08:49:58.275Z,5.1
2023-03-11T08:53:00.228Z,5.7
2023-03-11T08:56:02.233Z,5.1
2023-03-11T08:59:04.227Z,3.7
2023-03-11T09:02:06.101Z,5.6
2023-03-11T09:05:08.058Z,5.1
2023-03-11T09:08:10.029Z,6.7
2023-03-11T09:11:11.991Z,4
2023-03-11T09:14:17.046Z,3.1
2023-03-11T09:17:19.021Z,7.9
2023-03-11T09:20:21.019Z,5.8
2023-03-11T09:23:22.983Z,5.1
2023-03-11T09:26:24.942Z,5.4
2023-03-11T09:29:26.916Z,6
2023-03-11T09:32:28.923Z,5.4
2023-03-11T09:35:30.860Z,8.2
2023-03-11T09:38:32.789Z,3.6
2023-03-11T09:41:38.278Z,4.7
2023-03-11T09:44:36.689Z,5.4
2023-03-11T09:47:38.663Z,3.9
2023-03-11T09:50:40.677Z,4.9
2023-03-11T09:53:42.618Z,5.1
2023-03-11T09:56:44.707Z,4.2
2023-03-11T09:59:46.528Z,4.9
2023-03-11T10:02:48.648Z,5.3
2023-03-11T10:05:50.589Z,5.4
2023-03-11T10:08:52.573Z,6
2023-03-11T10:11:54.544Z,2.5
2023-03-11T10:14:56.546Z,2.3
2023-03-11T10:17:58.458Z,3.6
2023-03-11T10:21:00.412Z,4.2
2023-03-11T10:24:02.397Z,3.2
2023-03-11T10:27:04.390Z,5.2
2023-03-11T10:30:06.448Z,1.8
2023-03-11T10:33:08.356Z,4.5
2023-03-11T10:36:10.368Z,2.1
2023-03-11T10:39:12.339Z,2.8
2023-03-11T10:42:14.245Z,2.5
2023-03-11T10:45:16.263Z,3.2
2023-03-11T10:48:18.217Z,2.9
2023-03-11T10:51:20.173Z,2.5
2023-03-11T10:54:22.124Z,3.2
2023-03-11T10:57:24.162Z,2.8
2023-03-11T11:00:26.335Z,3.4
2023-03-11T11:03:28.047Z,2
2023-03-11T11:06:30.002Z,2.8
2023-03-11T11:09:31.975Z,3.8
2023-03-11T11:12:33.953Z,3.1
2023-03-11T11:15:35.907Z,3.7
2023-03-11T11:18:37.891Z,3.8
2023-03-11T11:21:39.850Z,5.5
2023-03-11T11:24:41.798Z,5.4
2023-03-11T11:27:43.900Z,3.5
2023-03-11T11:30:45.951Z,4.2
2023-03-11T11:33:47.916Z,2.1
2023-03-11T11:36:49.841Z,2.7
2023-03-11T11:39:52.160Z,2.7
2023-03-11T11:42:53.769Z,3.7
2023-03-11T11:45:55.771Z,3.5
2023-03-11T11:48:57.688Z,3.2
2023-03-11T11:51:59.665Z,4.8
2023-03-11T11:55:01.627Z,3
2023-03-11T11:58:03.581Z,2.5
2023-03-11T12:01:05.593Z,3.7
2023-03-11T12:04:07.608Z,1.9
2023-03-11T12:07:09.577Z,2.5
2023-03-11T12:10:22.035Z,3.5
2023-03-11T12:13:13.513Z,3.8
2023-03-11T12:16:15.474Z,2.3
2023-03-11T12:19:17.389Z,4.6
2023-03-11T12:22:19.351Z,4.4
2023-03-11T12:25:21.300Z,4.4
2023-03-11T12:28:23.273Z,2.7
2023-03-11T12:31:25.428Z,4.8
2023-03-11T12:34:27.317Z,5.4
2023-03-11T12:37:29.266Z,2.9
2023-03-11T12:40:31.260Z,2.8
2023-03-11T12:43:33.258Z,2.8
2023-03-11T12:46:35.251Z,5.8
2023-03-11T12:49:37.192Z,3.7
2023-03-11T12:52:39.146Z,7.1
2023-03-11T12:55:41.182Z,2.7
2023-03-11T12:58:43.116Z,3.7
2023-03-11T13:01:45.228Z,2.5
2023-03-11T13:04:47.131Z,2.9
2023-03-11T13:07:49.216Z,3.6
2023-03-11T13:10:51.182Z,6.7
2023-03-11T13:13:53.146Z,5.4
2023-03-11T13:16:55.121Z,4.4
2023-03-11T13:19:57.081Z,3.4
2023-03-11T13:22:59.036Z,2.4
2023-03-11T13:26:00.983Z,3.3
2023-03-11T13:29:02.984Z,2.8
2023-03-11T13:32:04.905Z,2.1
2023-03-11T13:35:06.906Z,3
2023-03-11T13:38:09.144Z,3.3
2023-03-11T13:41:10.802Z,1.4
2023-03-11T13:44:12.784Z,2.3
2023-03-11T13:47:14.768Z,5.2
2023-03-11T13:50:16.748Z,3.4
2023-03-11T13:53:18.690Z,2.8
2023-03-11T13:56:20.636Z,4.1
2023-03-11T13:59:22.644Z,1.7
2023-03-11T14:02:24.613Z,2.7
2023-03-11T14:05:26.550Z,2.9
2023-03-11T14:08:28.498Z,2.5
2023-03-11T14:11:30.612Z,2.3
2023-03-11T14:14:32.502Z,2.8
2023-03-11T14:17:34.421Z,2.2
2023-03-11T14:20:36.388Z,1.8
2023-03-11T14:23:38.348Z,2.7
2023-03-11T14:26:40.294Z,4.9
2023-03-11T14:29:42.261Z,2.9
2023-03-11T14:32:44.253Z,1.5
2023-03-11T14:35:46.237Z,3.2
2023-03-11T14:38:48.157Z,2
2023-03-11T14:41:50.120Z,2.8
2023-03-11T14:44:52.185Z,3
2023-03-11T14:47:54.157Z,2.5
2023-03-11T14:50:56.105Z,1.8
2023-03-11T14:53:58.066Z,1.2
2023-03-11T14:57:00.049Z,3.6
2023-03-11T15:00:02.049Z,1.5
2023-03-11T15:03:04.038Z,2.3
2023-03-11T15:06:05.943Z,3.4
2023-03-11T15:09:07.908Z,4.1
2023-03-11T15:12:09.873Z,3.8
2023-03-11T15:15:11.861Z,4.7
2023-03-11T15:18:13.792Z,5.2
2023-03-11T15:21:15.758Z,1.8
2023-03-11T15:24:17.734Z,1.7
2023-03-11T15:27:19.713Z,2.6
2023-03-11T15:30:21.664Z,2.4
2023-03-11T15:33:23.610Z,3.1
2023-03-11T15:36:25.616Z,4.1
2023-03-11T15:39:27.598Z,2.6
2023-03-11T15:42:29.516Z,1.8
2023-03-11T15:45:31.501Z,3.6
2023-03-11T15:48:33.461Z,3.1
2023-03-11T15:51:35.413Z,3.6
2023-03-11T15:54:37.386Z,2.7
2023-03-11T15:57:39.342Z,2.6
2023-03-11T16:00:41.323Z,5.2
2023-03-11T16:03:43.441Z,1.9
2023-03-11T16:06:46.766Z,4.5
2023-03-11T16:09:47.241Z,3.1
2023-03-11T16:12:49.222Z,4.2
2023-03-11T16:15:51.198Z,3.1
2023-03-11T16:18:53.598Z,3.5
2023-03-11T16:21:55.737Z,4.7
2023-03-11T16:24:58.125Z,4.7
2023-03-11T16:28:00.168Z,5.3
2023-03-11T16:31:02.191Z,1.5
2023-03-11T16:34:04.083Z,2.5
2023-03-11T16:37:06.049Z,3.9
2023-03-11T16:40:08.018Z,2.8
2023-03-11T16:43:09.988Z,2.1
2023-03-11T16:46:12.098Z,2.5
2023-03-11T16:49:13.924Z,2.2
2023-03-11T16:52:15.919Z,5.2
2023-03-11T16:55:17.890Z,2.7
2023-03-11T16:58:19.835Z,5.2
2023-03-11T17:01:21.962Z,4
2023-03-11T17:04:23.755Z,1.2
2023-03-11T17:07:25.713Z,1.7
2023-03-11T17:10:27.707Z,4.4
2023-03-11T17:13:29.709Z,4.4
2023-03-11T17:16:31.676Z,3.2
2023-03-11T17:19:33.613Z,1.9
2023-03-11T17:22:35.583Z,4.9
2023-03-11T17:25:37.540Z,2.2
2023-03-11T17:28:39.474Z,2.3
2023-03-11T17:31:41.463Z,2.7
2023-03-11T17:34:43.433Z,3.4
2023-03-11T17:37:45.374Z,3.1
2023-03-11T17:40:47.330Z,4.7
2023-03-11T17:43:51.405Z,1.9
2023-03-11T17:46:51.335Z,4.7
2023-03-11T17:49:53.255Z,4.5
2023-03-11T17:52:55.176Z,1.9
2023-03-11T17:55:57.171Z,2.1
2023-03-11T17:58:59.103Z,2.3
2023-03-11T18:02:01.077Z,4.3
2023-03-11T18:05:03.026Z,2.9
2023-03-11T18:08:05.031Z,4
2023-03-11T18:11:06.999Z,3.4
2023-03-11T18:14:08.968Z,2.2
2023-03-11T18:17:10.924Z,3.4
2023-03-11T18:20:12.846Z,3.8
2023-03-11T18:23:14.865Z,3.8
2023-03-11T18:26:16.837Z,4
2023-03-11T18:29:19.102Z,3.2
2023-03-11T18:32:20.955Z,3.3
2023-03-11T18:35:22.715Z,3.2
2023-03-11T18:38:24.704Z,5.1
2023-03-11T18:41:26.630Z,7.4
2023-03-11T18:44:28.699Z,5.3
2023-03-11T18:47:30.587Z,3.5
2023-03-11T18:50:32.573Z,4.1
2023-03-11T18:53:34.543Z,6.4
2023-03-11T18:56:36.461Z,3.3
2023-03-11T18:59:38.412Z,2.6
2023-03-11T19:02:40.375Z,4
2023-03-11T19:05:42.370Z,4.2
2023-03-11T19:08:44.324Z,3.7
2023-03-11T19:11:46.287Z,3.9
2023-03-11T19:14:48.253Z,4.6
2023-03-11T19:18:00.779Z,7.7
2023-03-11T19:20:52.202Z,5.7
2023-03-11T19:23:54.142Z,4.4
2023-03-11T19:26:56.104Z,5.2
2023-03-11T19:29:58.064Z,6.2
2023-03-11T19:33:00.025Z,5.2
2023-03-11T19:36:02.077Z,4.9
2023-03-11T19:39:03.958Z,7
2023-03-11T19:42:05.906Z,4.4
2023-03-11T19:45:07.901Z,8.6
2023-03-11T19:48:12.095Z,8.1
2023-03-11T19:51:11.832Z,5.8
2023-03-11T19:54:13.756Z,10.6
2023-03-11T19:57:15.750Z,8
2023-03-11T20:00:17.726Z,8
2023-03-11T20:03:19.673Z,7.5
2023-03-11T20:06:21.818Z,8.5
2023-03-11T20:09:23.625Z,7.4
2023-03-11T20:12:25.600Z,6.1
2023-03-11T20:15:27.579Z,7.2
2023-03-11T20:18:29.598Z,7.2
2023-03-11T20:21:31.443Z,8.6
2023-03-11T20:24:33.482Z,6.1
2023-03-11T20:27:35.367Z,8.3
2023-03-11T20:30:37.330Z,7.3
2023-03-11T20:33:39.352Z,6.9
2023-03-11T20:36:41.407Z,6.9
2023-03-11T20:39:43.339Z,9.7
2023-03-11T20:42:45.306Z,8.2
2023-03-11T20:45:47.236Z,7.8
2023-03-11T20:48:49.236Z,8.8
2023-03-11T20:51:51.210Z,6.3
2023-03-11T20:54:53.191Z,10.9
2023-03-11T20:57:55.115Z,10.5
2023-03-11T21:00:57.118Z,9.3
2023-03-11T21:03:59.147Z,7.9
2023-03-11T21:07:00.966Z,9.3
2023-03-11T21:10:03.049Z,8.4
2023-03-11T21:13:05.031Z,8
2023-03-11T21:16:06.981Z,7.6
2023-03-11T21:19:09.090Z,7.7
2023-03-11T21:22:10.825Z,8.2
2023-03-11T21:25:12.916Z,10.3
2023-03-11T21:28:14.761Z,11.8
2023-03-11T21:31:16.753Z,8.8
2023-03-11T21:34:18.674Z,7.5
2023-03-11T21:37:20.760Z,9.9
2023-03-11T21:40:22.613Z,12.7
2023-03-11T21:43:24.598Z,14
2023-03-11T21:46:26.661Z,13.1
2023-03-11T21:49:28.613Z,8.4
2023-03-11T21:52:30.435Z,11
2023-03-11T21:55:32.400Z,9.8
2023-03-11T21:58:34.413Z,9.1
2023-03-11T22:01:36.506Z,8.7
2023-03-11T22:04:38.578Z,8.6
2023-03-11T22:07:40.301Z,8.6
2023-03-11T22:10:42.382Z,6.6
2023-03-11T22:13:44.299Z,9
2023-03-11T22:16:46.227Z,13
2023-03-11T22:19:48.143Z,9.9
2023-03-11T22:22:50.062Z,14.1
2023-03-11T22:25:52.008Z,8.6
2023-03-11T22:28:54.004Z,11.9
2023-03-11T22:31:56.420Z,9.5
2023-03-11T22:34:57.942Z,9.3
2023-03-11T22:37:59.884Z,10.6
2023-03-11T22:41:01.891Z,8.9
2023-03-11T22:44:03.855Z,10.4
2023-03-11T22:47:05.781Z,9.2
2023-03-11T22:50:07.791Z,10.3
2023-03-11T22:53:09.718Z,12.5
2023-03-11T22:56:11.702Z,10
2023-03-11T22:59:13.639Z,8.5
2023-03-11T23:02:15.601Z,11.3
2023-03-11T23:05:17.572Z,12.5
2023-03-11T23:08:19.530Z,14.3
2023-03-11T23:11:21.485Z,12.1
2023-03-11T23:14:28.021Z,10.8
2023-03-11T23:17:25.443Z,13.1
2023-03-11T23:20:27.395Z,14.4
2023-03-11T23:23:29.342Z,10.7
2023-03-11T23:26:31.341Z,12.9
2023-03-11T23:29:33.334Z,11.6
2023-03-11T23:32:35.365Z,11.1
2023-03-11T23:35:37.267Z,11.1
2023-03-11T23:38:39.206Z,7.9
2023-03-11T23:41:41.164Z,10.9
2023-03-11T23:44:43.144Z,10
2023-03-11T23:47:45.096Z,11.3
2023-03-11T23:50:47.048Z,7.6
2023-03-11T23:53:49.020Z,11.3
2023-03-11T23:56:50.968Z,10.9
2023-03-11T23:59:52.960Z,11.1
